Time;durP1;ratioP1;P1;durP2;ratioP2;P2;SDS_P1;SDS_P2;PMS_P1;PMS_P2;Temp;Humidity;BMP_temperature;BMP_pressure;BME280_temperature;BME280_humidity;BME280_pressure;Samples;Min_cycle;Max_cycle;Signal;HPM_P1;HPM_P2
2022/11/28 00:00:28;;;;;;;10.13;4.17;;;;;;;11.26;52.22;99737.25;6275848;22;20285;-84
2022/11/28 00:02:54;;;;;;;11.07;4.23;;;;;;;11.13;52.84;99736.13;6249301;22;20156;-84
2022/11/28 00:05:19;;;;;;;11.20;5.10;;;;;;;11.15;52.84;99718.53;6249750;22;20167;-84
2022/11/28 00:07:45;;;;;;;10.47;4.93;;;;;;;11.18;52.64;99721.00;6249260;22;20499;-83
2022/11/28 00:10:11;;;;;;;8.93;4.37;;;;;;;11.15;52.79;99718.53;6276084;22;20178;-83
2022/11/28 00:12:36;;;;;;;12.17;5.30;;;;;;;11.02;53.50;99720.00;6275743;22;20152;-83
2022/11/28 00:15:03;;;;;;;15.07;6.73;;;;;;;11.01;53.60;99724.41;6249223;22;20152;-83
2022/11/28 00:17:29;;;;;;;13.97;6.10;;;;;;;11.01;54.26;99723.53;6275926;22;20227;-83
2022/11/28 00:19:54;;;;;;;14.23;6.13;;;;;;;11.05;54.43;99722.50;6243825;23;20713;-84
2022/11/28 00:22:20;;;;;;;15.57;6.50;;;;;;;11.03;54.89;99719.09;6244532;23;20168;-84
2022/11/28 00:24:45;;;;;;;13.87;6.40;;;;;;;11.03;54.86;99724.34;6245105;22;20208;-83
2022/11/28 00:27:10;;;;;;;14.10;5.97;;;;;;;10.99;55.34;99722.75;6247105;23;20149;-83
2022/11/28 00:29:38;;;;;;;24.70;6.50;;;;;;;10.96;56.05;99723.75;6246510;23;20149;-84
2022/11/28 00:32:04;;;;;;;23.00;7.70;;;;;;;10.92;56.16;99721.34;6246044;23;20149;-84
2022/11/28 00:34:29;;;;;;;20.40;7.87;;;;;;;10.97;56.13;99721.97;6247088;22;20163;-83
2022/11/28 00:36:54;;;;;;;15.57;6.87;;;;;;;10.99;56.32;99715.75;6245947;23;20161;-83
2022/11/28 00:39:20;;;;;;;15.00;6.73;;;;;;;10.98;56.49;99716.66;6247091;22;20246;-83
2022/11/28 00:41:45;;;;;;;11.80;6.17;;;;;;;10.93;56.84;99712.53;6247173;22;20171;-83
2022/11/28 00:44:11;;;;;;;14.00;6.73;;;;;;;10.97;56.97;99714.97;6247559;22;20218;-83
2022/11/28 00:46:37;;;;;;;15.83;6.67;;;;;;;10.95;57.13;99711.53;6247644;22;20156;-83
2022/11/28 00:49:03;;;;;;;12.97;6.10;;;;;;;10.90;57.78;99710.06;6247635;22;20211;-83
2022/11/28 00:51:30;;;;;;;17.17;6.33;;;;;;;10.92;57.29;99705.59;6247385;22;20157;-83
2022/11/28 00:53:58;;;;;;;11.43;4.77;;;;;;;10.94;57.20;99709.00;6247221;22;20156;-83
2022/11/28 00:56:29;;;;;;;12.90;5.87;;;;;;;10.88;57.10;99702.25;6246345;23;20501;-84
2022/11/28 00:58:55;;;;;;;14.20;5.90;;;;;;;10.97;57.03;99703.63;6245955;23;20178;-83
2022/11/28 01:01:24;;;;;;;13.60;5.20;;;;;;;10.96;56.93;99696.66;6245947;23;20231;-83
2022/11/28 01:03:51;;;;;;;12.93;5.60;;;;;;;10.89;57.05;99695.25;6247134;22;20149;-83
2022/11/28 01:06:23;;;;;;;17.23;6.13;;;;;;;10.93;56.76;99696.78;6247826;22;20557;-83
2022/11/28 01:08:48;;;;;;;12.00;5.50;;;;;;;10.94;56.77;99682.78;6245884;23;20145;-84
2022/11/28 01:11:14;;;;;;;9.03;4.20;;;;;;;10.91;56.45;99690.78;6245585;23;20180;-83
2022/11/28 01:13:39;;;;;;;15.80;5.10;;;;;;;10.82;56.89;99692.03;6245878;23;20600;-83
2022/11/28 01:16:06;;;;;;;13.77;5.33;;;;;;;10.84;57.00;99692.84;6247039;22;20145;-83
2022/11/28 01:18:31;;;;;;;11.40;4.47;;;;;;;10.79;56.97;99692.19;6247861;22;20192;-83
2022/11/28 01:20:57;;;;;;;13.03;4.77;;;;;;;10.74;57.29;99690.69;6250928;22;20149;-83
2022/11/28 01:23:22;;;;;;;9.20;4.23;;;;;;;10.79;57.24;99693.97;6278248;22;20144;-83
2022/11/28 01:25:48;;;;;;;15.13;5.13;;;;;;;10.78;56.72;99682.63;6278284;22;20164;-83
2022/11/28 01:28:13;;;;;;;13.97;5.23;;;;;;;10.73;57.37;99686.34;6250874;22;20160;-83
2022/11/28 01:30:39;;;;;;;13.77;6.17;;;;;;;10.78;56.73;99684.38;6250760;22;20164;-83
2022/11/28 01:33:04;;;;;;;14.90;5.83;;;;;;;10.80;56.82;99674.66;6277505;22;20144;-83
2022/11/28 01:35:30;;;;;;;12.63;6.10;;;;;;;10.69;56.73;99672.53;6277502;22;20155;-83
2022/11/28 01:37:55;;;;;;;21.97;7.07;;;;;;;10.53;56.47;99671.53;6278042;22;20225;-83
2022/11/28 01:40:20;;;;;;;13.90;6.77;;;;;;;10.56;56.47;99667.91;6277384;22;20179;-83
2022/11/28 01:42:46;;;;;;;12.67;6.20;;;;;;;10.58;56.58;99664.31;6250694;22;20218;-83
2022/11/28 01:45:24;;;;;;;13.40;6.83;;;;;;;10.55;56.96;99663.56;6250722;22;20152;-83
2022/11/28 01:47:55;;;;;;;17.00;6.33;;;;;;;10.54;57.12;99665.34;6278023;22;20143;-83
2022/11/28 01:50:21;;;;;;;22.43;7.13;;;;;;;10.66;56.36;99666.59;6250550;22;20158;-83
2022/11/28 01:52:52;;;;;;;14.00;6.30;;;;;;;10.60;56.66;99661.59;6277734;22;20201;-83
2022/11/28 01:55:22;;;;;;;13.27;6.70;;;;;;;10.52;56.94;99663.72;6277710;22;20165;-83
2022/11/28 01:57:48;;;;;;;16.37;7.23;;;;;;;10.54;56.69;99654.84;6277694;22;20152;-83
2022/11/28 02:00:18;;;;;;;12.60;5.73;;;;;;;10.52;56.43;99656.69;6250428;22;20259;-83
2022/11/28 02:02:50;;;;;;;17.20;6.53;;;;;;;10.48;56.11;99650.72;6277203;22;20152;-83
2022/11/28 02:05:17;;;;;;;15.23;6.00;;;;;;;10.31;57.08;99650.63;6250506;22;20176;-83
2022/11/28 02:07:43;;;;;;;15.07;6.77;;;;;;;10.30;57.30;99659.41;6277155;22;20148;-83
2022/11/28 02:10:14;;;;;;;13.97;6.80;;;;;;;10.31;57.13;99663.72;6277189;22;20243;-83
2022/11/28 02:12:49;;;;;;;13.33;6.83;;;;;;;10.36;57.08;99663.53;6277184;22;20198;-83
2022/11/28 02:15:15;;;;;;;14.57;6.17;;;;;;;10.35;57.00;99657.44;6250412;22;20162;-83
2022/11/28 02:17:40;;;;;;;17.17;6.27;;;;;;;10.36;56.93;99663.53;6250366;22;20159;-83
2022/11/28 02:20:53;;;;;;;16.43;6.70;;;;;;;10.36;57.20;99663.53;6276841;22;20222;-83
2022/11/28 02:24:04;;;;;;;12.83;6.00;;;;;;;10.39;57.11;99660.78;6236991;22;20167;-83
2022/11/28 02:26:44;;;;;;;23.40;6.70;;;;;;;10.29;57.40;99652.47;6239269;22;20237;-83
2022/11/28 02:29:50;;;;;;;13.03;5.83;;;;;;;10.17;57.33;99657.34;6250263;22;20480;-83
2022/11/28 02:32:26;;;;;;;12.80;5.83;;;;;;;10.18;57.80;99649.44;6250206;22;20205;-83
2022/11/28 02:35:11;;;;;;;18.37;6.20;;;;;;;10.14;57.38;99647.88;6277579;22;20219;-83
2022/11/28 02:37:42;;;;;;;15.87;7.23;;;;;;;10.12;57.69;99649.72;6250268;22;20202;-83
2022/11/28 02:40:20;;;;;;;16.63;6.60;;;;;;;10.17;57.39;99655.59;6249996;22;20180;-83
2022/11/28 02:43:28;;;;;;;15.67;6.13;;;;;;;10.09;57.17;99644.56;6250186;22;20222;-83
2022/11/28 02:46:30;;;;;;;17.83;6.90;;;;;;;10.07;57.58;99651.63;6204545;22;20187;-83
2022/11/28 02:49:05;;;;;;;13.30;5.77;;;;;;;10.07;57.49;99654.25;6203800;22;20552;-83
2022/11/28 02:51:30;;;;;;;23.57;6.20;;;;;;;10.14;57.19;99649.66;6277126;22;20453;-83
2022/11/28 02:53:58;;;;;;;16.40;6.63;;;;;;;10.09;57.47;99652.41;6276710;22;20149;-83
2022/11/28 02:56:24;;;;;;;17.90;6.67;;;;;;;9.98;58.01;99657.28;6276793;22;20564;-83
2022/11/28 02:58:50;;;;;;;15.87;6.30;;;;;;;10.02;57.95;99653.59;6249933;22;20508;-83
2022/11/28 03:01:21;;;;;;;13.80;6.70;;;;;;;9.97;58.22;99655.56;6249906;22;20155;-83
2022/11/28 03:04:08;;;;;;;19.30;7.20;;;;;;;9.96;58.00;99659.09;6277051;22;20132;-83
2022/11/28 03:07:12;;;;;;;17.00;7.20;;;;;;;9.98;57.93;99649.44;6249787;22;20538;-83
2022/11/28 03:09:50;;;;;;;21.00;6.27;;;;;;;9.97;58.04;99650.31;6193159;22;20166;-83
2022/11/28 03:12:25;;;;;;;15.73;7.47;;;;;;;9.97;58.33;99646.84;6249808;22;20162;-83
2022/11/28 03:14:55;;;;;;;14.77;6.57;;;;;;;9.96;58.23;99642.53;6276884;22;20144;-83
2022/11/28 03:17:40;;;;;;;15.70;5.90;;;;;;;9.92;58.30;99646.19;6249694;22;20155;-83
2022/11/28 03:20:50;;;;;;;16.60;6.13;;;;;;;10.00;58.30;99647.59;6244394;23;20262;-83
2022/11/28 03:23:20;;;;;;;12.30;5.43;;;;;;;10.04;58.39;99641.28;6187672;23;20240;-83
2022/11/28 03:26:00;;;;;;;21.53;5.97;;;;;;;10.05;58.02;99636.91;6244652;23;20508;-83
2022/11/28 03:28:47;;;;;;;21.60;7.63;;;;;;;10.03;57.90;99634.38;6244691;23;20209;-83
2022/11/28 03:31:18;;;;;;;17.13;7.23;;;;;;;10.11;58.35;99644.50;6246462;22;20134;-83
2022/11/28 03:33:50;;;;;;;16.50;5.73;;;;;;;10.13;57.80;99638.31;6244629;23;20174;-83
2022/11/28 03:36:21;;;;;;;11.03;5.57;;;;;;;10.06;57.50;99636.84;6246154;22;20142;-83
2022/11/28 03:38:52;;;;;;;16.60;6.63;;;;;;;10.04;57.90;99641.28;6244479;23;20169;-83
2022/11/28 03:41:26;;;;;;;12.37;5.37;;;;;;;9.97;57.99;99642.47;6246409;22;20574;-83
2022/11/28 03:43:56;;;;;;;18.33;6.80;;;;;;;9.85;58.87;99641.19;6245734;22;20146;-83
2022/11/28 03:46:26;;;;;;;15.37;6.87;;;;;;;9.78;59.21;99638.91;6244534;23;20219;-83
2022/11/28 03:48:56;;;;;;;19.30;7.27;;;;;;;9.81;59.10;99638.78;6244533;23;20186;-83
2022/11/28 03:51:32;;;;;;;17.63;7.57;;;;;;;9.81;58.55;99641.41;6245872;22;20203;-83
2022/11/28 03:54:09;;;;;;;15.40;7.37;;;;;;;9.85;58.11;99632.53;6245786;22;20164;-83
2022/11/28 03:57:05;;;;;;;15.80;6.03;;;;;;;9.92;57.87;99633.09;6244512;23;20571;-83
2022/11/28 03:59:39;;;;;;;15.83;6.70;;;;;;;9.93;57.74;99637.44;6246324;22;20180;-83
2022/11/28 04:02:13;;;;;;;20.90;6.53;;;;;;;9.97;56.95;99655.56;6247549;22;20156;-83
2022/11/28 04:04:51;;;;;;;12.50;5.77;;;;;;;10.05;56.66;99648.25;6246610;23;20148;-83
2022/11/28 04:07:44;;;;;;;15.23;6.43;;;;;;;10.05;56.70;99653.47;6248183;22;20201;-83
2022/11/28 04:10:36;;;;;;;10.87;4.93;;;;;;;10.06;56.22;99643.84;6248021;23;20137;-83
2022/11/28 04:13:02;;;;;;;12.77;5.60;;;;;;;9.98;56.74;99646.81;6248050;22;20212;-83
2022/11/28 04:15:37;;;;;;;11.17;5.03;;;;;;;9.95;56.63;99652.16;6246805;23;20533;-83
2022/11/28 04:18:28;;;;;;;13.33;5.83;;;;;;;9.99;56.33;99651.09;6247925;22;20637;-83
2022/11/28 04:21:05;;;;;;;13.17;5.73;;;;;;;10.01;56.30;99651.88;6248274;22;20148;-83
2022/11/28 04:23:33;;;;;;;12.33;5.37;;;;;;;9.96;56.67;99655.66;6247953;22;20136;-83
2022/11/28 04:26:03;;;;;;;13.20;6.27;;;;;;;9.82;57.38;99661.44;6247871;22;20481;-83
2022/11/28 04:28:32;;;;;;;10.93;5.13;;;;;;;9.85;56.95;99650.84;6246392;23;20145;-83
2022/11/28 04:31:01;;;;;;;17.87;6.00;;;;;;;9.91;57.53;99661.03;6247523;22;20152;-83
2022/11/28 04:33:30;;;;;;;12.63;5.80;;;;;;;9.87;57.20;99660.34;6247539;22;20159;-83
2022/11/28 04:35:57;;;;;;;13.30;5.73;;;;;;;9.72;57.43;99665.34;6246180;23;20184;-83
2022/11/28 04:38:25;;;;;;;13.03;6.13;;;;;;;9.77;57.90;99658.16;6246145;23;20183;-83
2022/11/28 04:41:03;;;;;;;13.23;5.30;;;;;;;9.69;58.21;99661.09;6247439;22;20202;-83
2022/11/28 04:43:38;;;;;;;15.50;6.10;;;;;;;9.78;58.31;99660.72;6248039;23;20221;-83
2022/11/28 04:46:11;;;;;;;13.77;5.13;;;;;;;9.70;58.46;99657.56;6247412;22;20148;-83
2022/11/28 04:48:37;;;;;;;12.63;6.10;;;;;;;9.68;58.87;99659.38;6247730;22;20133;-83
2022/11/28 04:51:20;;;;;;;11.73;5.80;;;;;;;9.72;58.77;99666.19;6246107;23;20225;-83
2022/11/28 04:54:05;;;;;;;11.30;5.20;;;;;;;9.65;59.39;99680.44;6248010;22;20137;-83
2022/11/28 04:57:03;;;;;;;9.73;4.17;;;;;;;9.60;59.77;99682.41;6248005;22;20134;-83
2022/11/28 04:59:31;;;;;;;9.93;4.53;;;;;;;9.60;59.61;99686.78;6241587;23;20259;-83
2022/11/28 05:02:01;;;;;;;7.67;3.93;;;;;;;9.64;59.49;99683.97;6246375;23;20454;-83
2022/11/28 05:04:26;;;;;;;10.13;4.03;;;;;;;9.68;59.92;99682.09;6247252;22;20163;-83
2022/11/28 05:07:01;;;;;;;13.17;6.00;;;;;;;9.67;59.60;99686.47;6246043;23;20234;-83
2022/11/28 05:09:26;;;;;;;12.50;5.27;;;;;;;9.61;59.95;99688.50;6247545;22;20129;-83
2022/11/28 05:11:52;;;;;;;9.27;4.07;;;;;;;9.49;60.15;99689.81;6246912;22;20532;-83
2022/11/28 05:14:17;;;;;;;9.23;4.77;;;;;;;9.49;60.06;99694.19;6245834;23;20177;-83
2022/11/28 05:16:43;;;;;;;11.10;5.40;;;;;;;9.54;60.34;99700.13;6245868;23;20237;-83
2022/11/28 05:19:08;;;;;;;12.53;4.97;;;;;;;9.57;60.56;99695.59;6245647;23;20195;-83
2022/11/28 05:21:34;;;;;;;15.07;5.33;;;;;;;9.45;60.75;99695.22;6245723;23;20569;-83
2022/11/28 05:23:59;;;;;;;12.27;5.13;;;;;;;9.07;62.03;99694.94;6247011;23;20195;-83
2022/11/28 05:26:25;;;;;;;10.30;5.17;;;;;;;9.03;62.32;99695.09;6247017;22;20149;-83
2022/11/28 05:28:50;;;;;;;11.97;4.70;;;;;;;9.03;62.72;99693.34;6246736;23;20164;-83
2022/11/28 05:31:20;;;;;;;10.67;4.27;;;;;;;9.01;63.15;99697.78;6246984;22;20561;-83
2022/11/28 05:33:45;;;;;;;10.30;4.50;;;;;;;9.10;62.33;99686.97;6246961;22;20177;-83
2022/11/28 05:36:13;;;;;;;11.00;4.73;;;;;;;9.15;62.47;99690.25;6247232;22;20151;-83
2022/11/28 05:38:38;;;;;;;10.43;4.10;;;;;;;8.84;63.96;99689.69;6245606;23;20191;-83
2022/11/28 05:41:04;;;;;;;5.80;3.57;;;;;;;8.81;64.31;99686.34;6246915;22;20148;-83
2022/11/28 05:43:30;;;;;;;10.17;4.93;;;;;;;8.76;64.58;99688.28;6245650;23;20257;-83
2022/11/28 05:45:55;;;;;;;12.73;3.60;;;;;;;8.81;64.14;99684.59;6245592;23;20185;-83
2022/11/28 05:48:21;;;;;;;12.90;3.87;;;;;;;8.56;66.16;99678.56;6246856;22;20153;-83
2022/11/28 05:50:49;;;;;;;9.13;4.00;;;;;;;8.55;65.62;99684.66;6245536;23;20227;-83
2022/11/28 05:53:16;;;;;;;10.77;4.50;;;;;;;8.27;67.07;99686.56;6247162;22;20148;-83
2022/11/28 05:55:41;;;;;;;10.13;4.50;;;;;;;8.35;66.65;99685.38;6246230;23;20219;-83
2022/11/28 05:58:07;;;;;;;10.60;4.60;;;;;;;8.52;65.89;99671.72;6247076;22;20150;-83
2022/11/28 06:00:33;;;;;;;9.60;3.93;;;;;;;8.56;65.65;99674.19;6245409;23;20178;-83
2022/11/28 06:02:59;;;;;;;10.80;4.70;;;;;;;8.70;65.12;99671.03;6246894;22;20145;-83
2022/11/28 06:05:24;;;;;;;15.33;4.47;;;;;;;8.83;64.80;99667.06;6246635;22;20579;-83
2022/11/28 06:07:50;;;;;;;9.70;4.10;;;;;;;8.86;64.92;99666.97;6246429;23;20158;-83
2022/11/28 06:10:15;;;;;;;8.00;4.30;;;;;;;8.98;64.66;99669.16;6245392;23;20598;-83
2022/11/28 06:12:41;;;;;;;7.23;3.87;;;;;;;8.83;64.74;99679.31;6245400;23;20155;-83
2022/11/28 06:15:07;;;;;;;8.20;3.90;;;;;;;9.02;64.72;99680.31;6246502;22;20235;-83
2022/11/28 06:17:32;;;;;;;10.27;4.43;;;;;;;9.05;64.05;99680.22;6246416;22;20178;-83
2022/11/28 06:19:58;;;;;;;8.50;3.83;;;;;;;9.16;63.92;99671.06;6244967;23;20191;-83
2022/11/28 06:22:23;;;;;;;13.83;4.90;;;;;;;9.22;63.78;99677.81;6244990;23;20157;-83
2022/11/28 06:24:49;;;;;;;10.73;3.60;;;;;;;9.17;64.07;99677.97;6246082;23;20149;-83
2022/11/28 06:27:14;;;;;;;10.70;4.47;;;;;;;9.22;63.64;99676.03;6246676;23;20152;-83
2022/11/28 06:29:40;;;;;;;12.20;4.83;;;;;;;9.24;63.50;99674.22;6246767;22;20149;-83
2022/11/28 06:32:06;;;;;;;10.47;4.60;;;;;;;9.30;63.87;99667.06;6245074;23;20171;-83
2022/11/28 06:34:31;;;;;;;10.57;4.00;;;;;;;9.33;63.94;99664.31;6245095;23;20268;-83
2022/11/28 06:36:57;;;;;;;9.77;4.13;;;;;;;9.01;65.11;99666.41;6246333;22;20145;-83
2022/11/28 06:39:23;;;;;;;8.37;3.70;;;;;;;8.83;65.23;99674.91;6244989;23;20178;-83
2022/11/28 06:41:48;;;;;;;10.47;3.53;;;;;;;8.92;65.34;99677.22;6246184;23;20476;-83
2022/11/28 06:44:15;;;;;;;8.40;3.67;;;;;;;8.87;65.85;99662.59;6246536;22;20151;-83
2022/11/28 06:46:40;;;;;;;9.07;3.50;;;;;;;8.80;65.22;99662.00;6246579;22;20165;-83
2022/11/28 06:49:06;;;;;;;10.93;3.93;;;;;;;8.73;65.69;99659.63;6245044;23;20174;-83
2022/11/28 06:51:31;;;;;;;13.47;5.57;;;;;;;8.77;65.98;99667.31;6246828;22;20238;-83
2022/11/28 06:53:57;;;;;;;10.27;4.37;;;;;;;8.63;66.64;99665.22;6246117;22;20145;-83
2022/11/28 06:56:22;;;;;;;14.43;4.43;;;;;;;8.82;65.72;99675.84;6244967;23;20157;-83
2022/11/28 06:58:54;;;;;;;8.60;4.10;;;;;;;8.99;64.26;99672.59;6245945;22;20181;-83
2022/11/28 07:01:22;;;;;;;7.17;3.53;;;;;;;9.10;63.60;99671.28;6246704;22;20151;-83
2022/11/28 07:03:48;;;;;;;9.43;3.93;;;;;;;8.88;64.45;99667.78;6245127;23;20186;-83
2022/11/28 07:06:15;;;;;;;9.10;3.83;;;;;;;8.89;64.73;99666.00;6244841;23;20157;-83
2022/11/28 07:08:41;;;;;;;6.60;3.00;;;;;;;8.83;64.80;99674.09;6246022;22;20470;-83
2022/11/28 07:11:11;;;;;;;9.07;3.50;;;;;;;9.00;64.19;99662.09;6244713;23;20235;-83
2022/11/28 07:13:37;;;;;;;12.50;4.90;;;;;;;8.92;64.52;99658.91;6246248;22;20211;-83
2022/11/28 07:16:03;;;;;;;11.37;3.93;;;;;;;8.86;65.93;99660.88;6245942;22;20462;-83
2022/11/28 07:18:28;;;;;;;8.50;4.03;;;;;;;8.89;66.50;99666.84;6247183;22;20152;-83
2022/11/28 07:20:54;;;;;;;8.33;3.37;;;;;;;8.90;66.91;99673.81;6249845;22;20165;-83
2022/11/28 07:23:20;;;;;;;10.33;4.23;;;;;;;8.76;66.77;99680.44;6276812;22;20175;-83
2022/11/28 07:25:46;;;;;;;11.03;4.53;;;;;;;8.93;67.63;99675.44;6276392;22;20159;-83
2022/11/28 07:28:11;;;;;;;6.80;3.90;;;;;;;8.94;66.94;99674.53;6276469;22;20246;-83
2022/11/28 07:30:37;;;;;;;9.47;3.70;;;;;;;8.82;67.38;99675.00;6276405;22;20142;-83
2022/11/28 07:33:02;;;;;;;15.10;5.03;;;;;;;8.93;68.22;99668.47;6276697;22;20151;-83
2022/11/28 07:35:28;;;;;;;12.63;4.50;;;;;;;8.60;69.35;99675.78;6276659;22;20148;-83
2022/11/28 07:37:53;;;;;;;12.47;4.53;;;;;;;8.40;70.92;99673.03;6249525;22;20163;-83
2022/11/28 07:40:21;;;;;;;11.67;3.93;;;;;;;8.46;71.71;99669.34;6249560;22;20198;-83
2022/11/28 07:42:47;;;;;;;14.53;5.43;;;;;;;8.53;71.48;99663.84;6276332;22;20212;-83
2022/11/28 07:45:13;;;;;;;8.30;3.07;;;;;;;8.59;70.90;99668.00;6249969;22;20148;-83
2022/11/28 07:47:38;;;;;;;8.57;3.70;;;;;;;8.47;71.61;99663.19;6276991;22;20149;-83
2022/11/28 07:50:04;;;;;;;11.37;4.63;;;;;;;8.54;71.81;99665.53;6276238;22;20202;-84
2022/11/28 07:52:30;;;;;;;9.00;4.33;;;;;;;8.43;72.40;99666.84;6273119;22;20250;-84
2022/11/28 07:54:55;;;;;;;10.70;3.50;;;;;;;8.41;72.67;99659.03;6250176;22;20213;-84
2022/11/28 07:57:21;;;;;;;7.53;3.13;;;;;;;8.52;72.68;99658.66;6276263;22;20654;-83
2022/11/28 07:59:46;;;;;;;7.20;4.30;;;;;;;8.57;72.70;99661.94;6249303;22;20176;-83
2022/11/28 08:02:12;;;;;;;7.40;4.43;;;;;;;8.65;71.91;99652.06;6249216;22;20232;-83
2022/11/28 08:04:38;;;;;;;9.97;3.77;;;;;;;8.46;72.45;99661.50;6275929;22;20160;-83
2022/11/28 08:07:04;;;;;;;14.73;4.17;;;;;;;8.55;71.98;99659.41;6276219;22;20554;-83
2022/11/28 08:09:32;;;;;;;12.23;3.97;;;;;;;8.28;72.88;99665.59;6275265;22;20174;-83
2022/11/28 08:11:58;;;;;;;8.97;2.77;;;;;;;8.51;73.03;99654.34;6275882;22;20640;-83
2022/11/28 08:14:23;;;;;;;9.73;5.03;;;;;;;8.35;73.84;99653.19;6275703;22;20175;-83
2022/11/28 08:16:49;;;;;;;12.60;4.37;;;;;;;8.21;75.25;99658.00;6276022;22;20155;-83
2022/11/28 08:19:14;;;;;;;11.23;4.10;;;;;;;8.30;75.15;99660.34;6276006;22;20222;-83
2022/11/28 08:21:41;;;;;;;8.17;4.50;;;;;;;8.55;73.81;99645.47;6276204;22;20173;-83
2022/11/28 08:24:07;;;;;;;7.60;2.90;;;;;;;8.22;74.97;99650.13;6224003;22;20172;-83
2022/11/28 08:26:33;;;;;;;12.53;4.00;;;;;;;8.45;75.00;99650.19;6249124;22;20224;-83
2022/11/28 08:29:00;;;;;;;9.40;3.57;;;;;;;8.40;75.39;99651.25;6276296;22;20536;-83
2022/11/28 08:31:28;;;;;;;9.17;3.43;;;;;;;8.48;74.44;99644.00;6249202;22;20221;-84
2022/11/28 08:33:56;;;;;;;10.33;4.73;;;;;;;8.48;75.20;99644.00;6276249;22;20149;-84
2022/11/28 08:36:22;;;;;;;7.40;3.20;;;;;;;8.62;74.13;99639.16;6275764;22;20238;-84
2022/11/28 08:38:48;;;;;;;9.90;4.23;;;;;;;8.71;73.72;99636.19;6276177;22;20173;-84
2022/11/28 08:41:17;;;;;;;13.27;5.53;;;;;;;8.77;74.14;99625.50;6275915;22;20196;-84
2022/11/28 08:43:43;;;;;;;10.43;4.87;;;;;;;8.72;73.34;99622.22;6275911;22;20526;-84
2022/11/28 08:46:10;;;;;;;11.03;4.37;;;;;;;8.77;73.84;99619.41;6276114;22;20176;-84
2022/11/28 08:48:38;;;;;;;10.90;4.77;;;;;;;8.69;74.18;99624.94;6277806;22;20146;-84
2022/11/28 08:51:03;;;;;;;15.07;4.63;;;;;;;8.78;73.65;99623.75;6278006;22;20214;-84
2022/11/28 08:53:29;;;;;;;8.40;3.93;;;;;;;8.87;74.01;99616.41;6277678;22;20482;-84
2022/11/28 08:55:55;;;;;;;10.07;4.23;;;;;;;8.87;73.55;99613.78;6277869;22;20159;-84
2022/11/28 08:58:20;;;;;;;11.10;4.33;;;;;;;8.87;74.31;99613.78;6250858;22;20164;-84
2022/11/28 09:00:46;;;;;;;10.87;5.33;;;;;;;8.99;73.92;99626.38;6277721;22;20207;-84
2022/11/28 09:03:16;;;;;;;15.07;4.87;;;;;;;8.93;74.14;99616.19;6251696;22;20587;-84
2022/11/28 09:05:46;;;;;;;9.97;5.50;;;;;;;8.90;73.49;99616.28;6277786;22;20145;-83
2022/11/28 09:08:16;;;;;;;9.40;4.00;;;;;;;8.87;72.73;99611.19;6277836;22;20153;-84
2022/11/28 09:10:43;;;;;;;11.77;5.50;;;;;;;8.99;73.09;99615.06;6277856;22;20208;-83
2022/11/28 09:13:09;;;;;;;9.23;4.70;;;;;;;9.01;72.44;99608.03;6277386;22;20167;-84
2022/11/28 09:15:39;;;;;;;14.87;4.30;;;;;;;8.88;73.49;99607.66;6250840;22;20161;-83
2022/11/28 09:18:05;;;;;;;8.23;3.67;;;;;;;8.85;73.81;99605.16;6277795;22;20152;-83
2022/11/28 09:20:30;;;;;;;10.60;4.17;;;;;;;8.89;72.93;99598.88;6245208;23;20194;-83
2022/11/28 09:22:56;;;;;;;11.67;4.30;;;;;;;8.61;74.53;99599.09;6247235;22;20589;-83
2022/11/28 09:25:21;;;;;;;9.27;3.87;;;;;;;8.74;74.45;99601.22;6246987;22;20190;-83
2022/11/28 09:27:46;;;;;;;9.37;4.73;;;;;;;8.81;74.05;99594.84;6246168;23;20157;-83
2022/11/28 09:30:12;;;;;;;9.97;3.73;;;;;;;8.51;75.53;99589.91;6246545;22;20508;-84
2022/11/28 09:32:38;;;;;;;9.43;4.23;;;;;;;8.52;75.42;99585.50;6245547;23;20149;-84
2022/11/28 09:35:04;;;;;;;9.13;5.17;;;;;;;8.70;74.64;99590.03;6245339;23;20163;-84
2022/11/28 09:37:29;;;;;;;14.47;4.83;;;;;;;8.77;75.24;99588.91;6246887;22;20219;-84
2022/11/28 09:39:55;;;;;;;13.40;5.57;;;;;;;8.73;74.97;99592.53;6245316;23;20192;-84
2022/11/28 09:42:42;;;;;;;9.40;3.77;;;;;;;8.81;74.71;99598.31;6245659;23;20234;-84
2022/11/28 09:45:17;;;;;;;15.33;4.97;;;;;;;8.95;74.63;99582.97;6246247;23;20142;-84
2022/11/28 09:47:48;;;;;;;10.27;3.87;;;;;;;8.90;73.42;99574.47;6245841;23;20330;-84
2022/11/28 09:50:19;;;;;;;16.07;5.63;;;;;;;8.65;74.21;99571.94;6245253;23;20244;-84
2022/11/28 09:52:55;;;;;;;14.03;5.03;;;;;;;8.67;74.12;99576.25;6243896;23;20141;-84
2022/11/28 09:59:01;;;;;;;8.80;4.03;;;;;;;8.76;74.65;99563.69;6124776;23;20202;-84
2022/11/28 10:01:27;;;;;;;12.90;5.17;;;;;;;8.94;73.93;99559.50;6126000;23;20491;-84
2022/11/28 10:04:00;;;;;;;8.63;3.90;;;;;;;8.93;73.89;99552.56;6242116;22;20236;-84
2022/11/28 10:06:44;;;;;;;7.80;3.87;;;;;;;8.93;73.65;99550.81;6245550;23;20638;-84
2022/11/28 10:09:22;;;;;;;11.10;4.10;;;;;;;8.98;73.00;99548.88;6245488;23;20149;-84
2022/11/28 10:12:05;;;;;;;10.57;4.87;;;;;;;8.72;74.97;99537.72;6247040;23;20148;-84
2022/11/28 10:14:50;;;;;;;17.17;9.70;;;;;;;8.63;75.11;99544.16;6245537;23;20150;-84
2022/11/28 10:17:41;;;;;;;20.67;11.63;;;;;;;8.81;74.64;99537.34;6245431;23;20146;-84
2022/11/28 10:20:41;;;;;;;10.63;5.00;;;;;;;8.77;74.80;99541.88;6269263;22;20184;-84
2022/11/28 10:23:15;;;;;;;8.33;4.97;;;;;;;8.84;74.87;99542.47;6196730;22;20157;-84
2022/11/28 10:25:45;;;;;;;12.90;5.97;;;;;;;8.83;74.71;99543.41;6277128;22;20153;-84
2022/11/28 10:28:18;;;;;;;10.47;4.50;;;;;;;8.70;75.58;99548.22;6277537;22;20128;-84
2022/11/28 10:30:53;;;;;;;10.47;5.10;;;;;;;8.79;75.31;99544.41;6250430;22;20599;-84
2022/11/28 10:33:28;;;;;;;10.13;5.37;;;;;;;8.83;75.85;99546.84;6251511;22;20526;-84
2022/11/28 10:35:57;;;;;;;9.20;4.77;;;;;;;8.77;74.79;99541.00;6250370;22;20146;-84
2022/11/28 10:38:26;;;;;;;10.70;5.27;;;;;;;8.73;75.48;99542.88;6277366;22;20632;-84
2022/11/28 10:41:03;;;;;;;12.90;5.03;;;;;;;8.77;74.71;99544.47;6250353;22;20596;-84
2022/11/28 10:43:50;;;;;;;12.43;4.47;;;;;;;8.99;74.25;99536.63;6250344;22;20154;-84
2022/11/28 10:46:22;;;;;;;11.27;5.37;;;;;;;9.00;74.41;99536.59;6276989;22;20215;-85
2022/11/28 10:48:58;;;;;;;8.10;4.43;;;;;;;9.07;74.24;99535.41;6250594;22;20152;-84
2022/11/28 10:51:49;;;;;;;11.73;5.17;;;;;;;8.97;74.49;99523.63;6250207;22;20145;-85
2022/11/28 10:54:41;;;;;;;8.93;3.43;;;;;;;8.87;74.75;99543.22;6270010;22;20152;-85
2022/11/28 10:57:34;;;;;;;11.00;5.37;;;;;;;8.77;74.91;99526.19;6251204;22;20149;-85
2022/11/28 11:00:30;;;;;;;10.77;4.53;;;;;;;8.97;74.62;99522.78;6249989;22;20185;-85
2022/11/28 11:02:59;;;;;;;10.97;4.20;;;;;;;9.15;74.05;99517.66;6219171;22;20215;-85
2022/11/28 11:05:28;;;;;;;10.03;4.23;;;;;;;9.00;74.58;99512.19;6276821;22;20150;-85
2022/11/28 11:08:03;;;;;;;6.90;3.90;;;;;;;8.63;75.33;99512.78;6276802;22;20176;-84
2022/11/28 11:10:31;;;;;;;10.60;4.63;;;;;;;8.73;75.22;99501.06;6277316;22;20157;-85
2022/11/28 11:12:57;;;;;;;10.17;4.57;;;;;;;8.86;75.13;99499.66;6277078;22;20148;-85
2022/11/28 11:15:31;;;;;;;8.90;4.40;;;;;;;9.08;74.26;99495.28;6276824;22;20187;-85
2022/11/28 11:18:02;;;;;;;7.40;3.47;;;;;;;9.09;74.07;99496.16;6249970;22;20177;-84
2022/11/28 11:20:31;;;;;;;8.47;3.83;;;;;;;9.12;73.42;99496.00;6245485;23;20247;-84
2022/11/28 11:22:59;;;;;;;9.80;5.13;;;;;;;9.01;73.48;99491.25;6244905;23;20154;-84
2022/11/28 11:25:28;;;;;;;7.57;4.10;;;;;;;8.76;74.04;99495.72;6244874;23;20568;-84
2022/11/28 11:27:56;;;;;;;10.03;5.03;;;;;;;8.77;74.13;99496.59;6244796;23;20151;-84
2022/11/28 11:30:33;;;;;;;14.33;5.03;;;;;;;8.84;74.26;99482.34;6246010;22;20145;-84
2022/11/28 11:33:02;;;;;;;8.13;3.53;;;;;;;8.77;74.34;99493.97;6244886;23;20205;-83
2022/11/28 11:35:33;;;;;;;6.93;4.07;;;;;;;8.72;74.30;99491.53;6244847;23;20184;-84
2022/11/28 11:38:16;;;;;;;7.83;4.57;;;;;;;8.68;74.42;99486.47;6245998;22;20148;-83
2022/11/28 11:40:42;;;;;;;8.10;3.33;;;;;;;8.62;74.98;99490.22;6244664;23;20195;-84
2022/11/28 11:43:24;;;;;;;7.03;3.40;;;;;;;8.53;74.87;99480.09;6244729;23;20158;-83
2022/11/28 11:46:06;;;;;;;9.07;3.97;;;;;;;8.42;76.20;99482.25;6246295;22;20195;-84
2022/11/28 11:48:38;;;;;;;7.27;3.97;;;;;;;8.34;77.16;99481.69;6244741;23;20168;-84
2022/11/28 11:51:04;;;;;;;7.87;4.13;;;;;;;8.29;77.03;99486.25;6244688;23;20168;-84
2022/11/28 11:53:30;;;;;;;9.03;4.60;;;;;;;8.62;76.28;99484.97;6246171;22;20698;-84